createdAt,value
2023-05-14T00:01:02.280Z,92323.25
2023-05-14T00:03:31.212Z,92323.56
2023-05-14T00:05:59.515Z,92322.16
2023-05-14T00:08:27.716Z,92318.95
2023-05-14T00:10:55.906Z,92314.57
2023-05-14T00:13:25.890Z,92309.49
2023-05-14T00:15:54.168Z,92308.85
2023-05-14T00:18:22.450Z,92310.67
2023-05-14T00:20:54.957Z,92311.98
2023-05-14T00:23:23.921Z,92311.20
2023-05-14T00:25:52.220Z,92314.35
2023-05-14T00:28:21.069Z,92314.22
2023-05-14T00:30:50.054Z,92310.87
2023-05-14T00:33:18.316Z,92305.21
2023-05-14T00:35:47.312Z,92304.27
2023-05-14T00:38:17.248Z,92307.08
2023-05-14T00:40:51.399Z,92307.41
2023-05-14T00:43:23.653Z,92310.75
2023-05-14T00:45:54.841Z,92313.46
2023-05-14T00:48:23.698Z,92314.70
2023-05-14T00:50:52.363Z,92317.63
2023-05-14T00:53:21.065Z,92325.06
2023-05-14T00:55:50.804Z,92324.05
2023-05-14T00:58:20.004Z,92333.58
2023-05-14T01:00:48.438Z,92335.79
2023-05-14T01:03:16.890Z,92337.88
2023-05-14T01:05:58.418Z,92339.70
2023-05-14T01:09:08.335Z,92341.91
2023-05-14T01:11:48.116Z,92343.53
2023-05-14T01:14:31.528Z,92339.00
2023-05-14T01:17:02.450Z,92342.54
2023-05-14T01:19:41.964Z,92338.87
2023-05-14T01:22:11.965Z,92338.66
2023-05-14T01:24:40.816Z,92335.31
2023-05-14T01:27:21.413Z,92333.48
2023-05-14T01:30:03.259Z,92330.77
2023-05-14T01:32:33.754Z,92329.29
2023-05-14T01:35:02.898Z,92330.67
2023-05-14T01:37:32.390Z,92326.65
2023-05-14T01:40:01.781Z,92324.29
2023-05-14T01:42:30.926Z,92323.05
2023-05-14T01:45:00.031Z,92325.58
2023-05-14T01:47:28.463Z,92319.19
2023-05-14T01:49:56.775Z,92316.35
2023-05-14T01:52:25.110Z,92312.60
2023-05-14T01:54:53.339Z,92315.90
2023-05-14T01:57:21.651Z,92312.83
2023-05-14T01:59:49.858Z,92309.10
2023-05-14T02:02:18.174Z,92306.65
2023-05-14T02:04:46.776Z,92304.80
2023-05-14T02:07:15.513Z,92305.34
2023-05-14T02:09:43.987Z,92298.34
2023-05-14T02:12:12.347Z,92293.89
2023-05-14T02:14:40.635Z,92290.12
2023-05-14T02:17:09.160Z,92288.63
2023-05-14T02:19:37.379Z,92291.30
2023-05-14T02:22:05.831Z,92292.80
2023-05-14T02:24:35.368Z,92288.98
2023-05-14T02:27:04.317Z,92290.27
2023-05-14T02:29:32.673Z,92291.85
2023-05-14T02:32:01.002Z,92292.68
2023-05-14T02:34:29.268Z,92294.59
2023-05-14T02:36:57.483Z,92296.80
2023-05-14T02:39:25.678Z,92298.42
2023-05-14T02:41:53.940Z,92298.49
2023-05-14T02:44:22.127Z,92300.95
2023-05-14T02:46:50.513Z,92295.72
2023-05-14T02:49:18.810Z,92297.73
2023-05-14T02:51:47.102Z,92299.83
2023-05-14T02:54:16.832Z,92299.16
2023-05-14T02:56:45.171Z,92301.66
2023-05-14T02:59:13.391Z,92304.02
2023-05-14T03:01:42.708Z,92303.94
2023-05-14T03:04:11.434Z,92303.36
2023-05-14T03:06:39.779Z,92307.88
2023-05-14T03:09:08.021Z,92306.70
2023-05-14T03:11:36.307Z,92302.23
2023-05-14T03:14:04.638Z,92305.36
2023-05-14T03:16:32.969Z,92301.35
2023-05-14T03:19:01.318Z,92297.46
2023-05-14T03:21:29.825Z,92298.05
2023-05-14T03:23:58.094Z,92292.27
2023-05-14T03:26:26.382Z,92294.25
2023-05-14T03:28:55.172Z,92291.16
2023-05-14T03:31:23.462Z,92291.45
2023-05-14T03:33:51.976Z,92291.57
2023-05-14T03:36:20.406Z,92290.30
2023-05-14T03:38:49.127Z,92295.88
2023-05-14T03:41:20.157Z,92307.98
2023-05-14T03:43:48.484Z,92312.58
2023-05-14T03:46:16.829Z,92315.46
2023-05-14T03:48:45.298Z,92318.80
2023-05-14T03:51:13.696Z,92325.25
2023-05-14T03:53:42.026Z,92328.77
2023-05-14T03:56:10.243Z,92335.55
2023-05-14T03:58:38.577Z,92336.78
2023-05-14T04:01:06.839Z,92338.81
2023-05-14T04:03:35.291Z,92338.09
2023-05-14T04:06:03.748Z,92338.25
2023-05-14T04:08:32.044Z,92338.61
2023-05-14T04:11:01.664Z,92339.45
2023-05-14T04:13:29.935Z,92340.93
2023-05-14T04:15:58.226Z,92336.48
2023-05-14T04:18:26.629Z,92334.96
2023-05-14T04:20:56.148Z,92333.65
2023-05-14T04:23:24.521Z,92335.08
2023-05-14T04:25:52.779Z,92339.69
2023-05-14T04:28:21.004Z,92334.90
2023-05-14T04:30:49.524Z,92328.44
2023-05-14T04:33:17.760Z,92330.55
2023-05-14T04:35:47.029Z,92329.48
2023-05-14T04:38:15.652Z,92329.48
2023-05-14T04:40:43.949Z,92333.39
2023-05-14T04:43:12.272Z,92333.37
2023-05-14T04:45:41.242Z,92326.90
2023-05-14T04:48:09.682Z,92327.02
2023-05-14T04:50:38.072Z,92319.20
2023-05-14T04:53:06.351Z,92315.89
2023-05-14T04:55:34.650Z,92309.29
2023-05-14T04:58:03.098Z,92303.02
2023-05-14T05:00:31.408Z,92298.42
2023-05-14T05:02:59.873Z,92296.10
2023-05-14T05:05:28.245Z,92298.58
2023-05-14T05:07:56.489Z,92299.32
2023-05-14T05:10:25.158Z,92291.60
2023-05-14T05:12:53.742Z,92286.00
2023-05-14T05:15:21.962Z,92287.44
2023-05-14T05:17:50.198Z,92289.92
2023-05-14T05:20:18.839Z,92286.57
2023-05-14T05:22:47.472Z,92279.48
2023-05-14T05:25:15.731Z,92280.81
2023-05-14T05:27:43.937Z,92282.02
2023-05-14T05:30:12.817Z,92278.73
2023-05-14T05:32:41.133Z,92282.77
2023-05-14T05:35:09.951Z,92280.39
2023-05-14T05:37:38.145Z,92281.36
2023-05-14T05:40:07.276Z,92271.00
2023-05-14T05:42:35.601Z,92273.95
2023-05-14T05:45:04.200Z,92270.60
2023-05-14T05:47:32.514Z,92269.94
2023-05-14T05:50:00.747Z,92266.27
2023-05-14T05:52:29.067Z,92269.61
2023-05-14T05:54:57.319Z,92270.64
2023-05-14T05:57:27.254Z,92263.57
2023-05-14T05:59:55.656Z,92264.54
2023-05-14T06:02:25.372Z,92267.90
2023-05-14T06:04:53.900Z,92262.52
2023-05-14T06:07:22.213Z,92262.55
2023-05-14T06:09:50.415Z,92262.54
2023-05-14T06:12:18.646Z,92263.55
2023-05-14T06:14:46.785Z,92264.41
2023-05-14T06:17:15.022Z,92270.63
2023-05-14T06:19:43.245Z,92270.94
2023-05-14T06:22:11.489Z,92268.83
2023-05-14T06:24:39.562Z,92270.66
2023-05-14T06:27:07.835Z,92268.06
2023-05-14T06:29:36.105Z,92268.06
2023-05-14T06:32:04.929Z,92267.16
2023-05-14T06:34:33.138Z,92263.83
2023-05-14T06:37:04.277Z,92261.71
2023-05-14T06:39:32.646Z,92263.90
2023-05-14T06:42:00.886Z,92268.48
2023-05-14T06:44:32.004Z,92272.13
2023-05-14T06:47:00.605Z,92269.38
2023-05-14T06:49:29.050Z,92262.92
2023-05-14T06:51:57.371Z,92265.34
2023-05-14T06:54:25.737Z,92262.16
2023-05-14T06:56:54.410Z,92255.67
2023-05-14T06:59:22.682Z,92250.67
2023-05-14T07:01:51.046Z,92246.42
2023-05-14T07:04:19.444Z,92241.05
2023-05-14T07:06:47.816Z,92240.38
2023-05-14T07:09:16.332Z,92244.78
2023-05-14T07:11:44.491Z,92239.33
2023-05-14T07:14:13.118Z,92241.82
2023-05-14T07:16:42.421Z,92243.84
2023-05-14T07:19:10.764Z,92244.70
2023-05-14T07:21:38.921Z,92240.29
2023-05-14T07:24:07.393Z,92238.37
2023-05-14T07:26:35.664Z,92239.59
2023-05-14T07:29:03.909Z,92240.50
2023-05-14T07:31:32.220Z,92241.74
2023-05-14T07:34:00.607Z,92234.55
2023-05-14T07:36:28.934Z,92235.71
2023-05-14T07:38:57.395Z,92238.64
2023-05-14T07:41:25.718Z,92241.46
2023-05-14T07:43:54.090Z,92242.58
2023-05-14T07:46:22.424Z,92244.23
2023-05-14T07:48:51.337Z,92242.39
2023-05-14T07:51:19.791Z,92241.71
2023-05-14T07:53:47.928Z,92242.02
2023-05-14T07:56:16.136Z,92242.57
2023-05-14T07:58:44.331Z,92239.64
2023-05-14T08:01:13.091Z,92240.14
2023-05-14T08:03:41.534Z,92237.71
2023-05-14T08:06:09.893Z,92233.70
2023-05-14T08:08:38.259Z,92231.94
2023-05-14T08:11:06.630Z,92223.73
2023-05-14T08:13:34.922Z,92220.02
2023-05-14T08:16:03.238Z,92214.89
2023-05-14T08:18:31.582Z,92211.85
2023-05-14T08:21:01.011Z,92209.63
2023-05-14T08:23:30.551Z,92208.53
2023-05-14T08:25:59.471Z,92212.02
2023-05-14T08:28:28.070Z,92210.55
2023-05-14T08:30:56.294Z,92214.34
2023-05-14T08:33:24.528Z,92215.05
2023-05-14T08:35:56.421Z,92212.27
2023-05-14T08:38:24.645Z,92210.70
2023-05-14T08:40:59.972Z,92211.35
2023-05-14T08:43:46.157Z,92214.37
2023-05-14T08:46:17.561Z,92213.64
2023-05-14T08:48:51.368Z,92207.42
2023-05-14T08:51:19.702Z,92206.06
2023-05-14T08:53:48.188Z,92205.95
2023-05-14T08:56:18.459Z,92201.02
2023-05-14T08:58:46.688Z,92200.30
2023-05-14T09:01:14.956Z,92193.40
2023-05-14T09:03:44.419Z,92190.68
2023-05-14T09:06:14.613Z,92183.13
2023-05-14T09:08:43.095Z,92181.92
2023-05-14T09:11:11.386Z,92183.80
2023-05-14T09:13:39.646Z,92180.42
2023-05-14T09:16:07.999Z,92178.74
2023-05-14T09:18:37.069Z,92173.14
2023-05-14T09:21:05.693Z,92172.44
2023-05-14T09:23:34.731Z,92172.11
2023-05-14T09:26:06.256Z,92173.81
2023-05-14T09:28:34.562Z,92172.14
2023-05-14T09:31:03.185Z,92168.36
2023-05-14T09:33:31.702Z,92166.02
2023-05-14T09:36:00.949Z,92166.00
2023-05-14T09:38:31.033Z,92161.62
2023-05-14T09:41:00.871Z,92160.27
2023-05-14T09:43:29.151Z,92161.64
2023-05-14T09:45:57.374Z,92166.23
2023-05-14T09:48:26.264Z,92162.95
2023-05-14T09:50:54.726Z,92165.34
2023-05-14T09:53:23.050Z,92161.20
2023-05-14T09:55:51.429Z,92155.34
2023-05-14T09:58:19.656Z,92152.38
2023-05-14T10:00:48.095Z,92153.20
2023-05-14T10:03:19.766Z,92146.63
2023-05-14T10:05:51.167Z,92141.00
2023-05-14T10:08:27.937Z,92136.48
2023-05-14T10:10:59.196Z,92136.67
2023-05-14T10:13:40.053Z,92131.66
2023-05-14T10:16:22.157Z,92129.48
2023-05-14T10:18:57.174Z,92129.63
2023-05-14T10:21:27.015Z,92129.53
2023-05-14T10:23:55.963Z,92130.52
2023-05-14T10:26:25.494Z,92122.63
2023-05-14T10:28:54.008Z,92115.61
2023-05-14T10:31:47.824Z,92120.15
2023-05-14T10:34:34.882Z,92111.98
2023-05-14T10:37:08.711Z,92109.93
2023-05-14T10:39:54.084Z,92113.70
2023-05-14T10:42:23.690Z,92109.59
2023-05-14T10:45:01.861Z,92112.84
2023-05-14T10:47:32.071Z,92104.52
2023-05-14T10:50:02.649Z,92108.49
2023-05-14T10:52:32.367Z,92108.30
2023-05-14T10:55:03.642Z,92100.29
2023-05-14T10:57:32.903Z,92102.73
2023-05-14T11:00:01.876Z,92096.77
2023-05-14T11:02:38.618Z,92101.95
2023-05-14T11:05:11.686Z,92096.92
2023-05-14T11:07:48.501Z,92094.52
2023-05-14T11:10:22.137Z,92095.52
2023-05-14T11:12:51.793Z,92093.23
2023-05-14T11:15:23.509Z,92091.98
2023-05-14T11:17:53.067Z,92095.16
2023-05-14T11:20:21.995Z,92091.25
2023-05-14T11:22:51.948Z,92088.76
2023-05-14T11:25:21.856Z,92089.65
2023-05-14T11:27:50.552Z,92090.45
2023-05-14T11:30:20.270Z,92094.35
2023-05-14T11:32:50.204Z,92085.65
2023-05-14T11:35:18.916Z,92079.96
2023-05-14T11:37:55.098Z,92075.28
2023-05-14T11:40:23.664Z,92069.30
2023-05-14T11:42:53.660Z,92060.99
2023-05-14T11:45:27.140Z,92056.42
2023-05-14T11:47:55.599Z,92055.27
2023-05-14T11:50:24.051Z,92052.80
2023-05-14T11:52:57.257Z,92047.67
2023-05-14T11:55:25.653Z,92042.45
2023-05-14T11:57:54.511Z,92037.39
2023-05-14T12:00:24.874Z,92038.02
2023-05-14T12:02:54.614Z,92029.92
2023-05-14T12:05:22.814Z,92027.42
2023-05-14T12:07:51.027Z,92027.96
2023-05-14T12:10:19.246Z,92027.26
2023-05-14T12:12:48.855Z,92029.23
2023-05-14T12:15:21.910Z,92025.45
2023-05-14T12:17:51.956Z,92018.23
2023-05-14T12:20:20.641Z,92016.64
2023-05-14T12:22:49.135Z,92010.18
2023-05-14T12:25:17.520Z,92014.55
2023-05-14T12:27:45.951Z,92009.96
2023-05-14T12:32:46.853Z,92006.61
2023-05-14T12:35:15.312Z,92001.42
2023-05-14T12:37:43.854Z,92001.77
2023-05-14T12:40:12.340Z,91998.13
2023-05-14T12:42:40.564Z,92000.30
2023-05-14T12:45:09.062Z,92000.32
2023-05-14T12:47:37.612Z,91993.74
2023-05-14T12:50:06.632Z,91991.75
2023-05-14T12:55:07.730Z,91993.41
2023-05-14T12:57:36.042Z,91995.55
2023-05-14T13:00:08.431Z,91997.19
2023-05-14T13:02:42.731Z,91998.16
2023-05-14T13:05:12.689Z,91999.88
2023-05-14T13:07:41.603Z,92001.77
2023-05-14T13:10:10.473Z,92006.61
2023-05-14T13:12:38.920Z,92002.63
2023-05-14T13:15:08.093Z,92007.01
2023-05-14T13:17:36.669Z,91994.27
2023-05-14T13:20:05.406Z,91996.11
2023-05-14T13:22:33.669Z,91997.41
2023-05-14T13:25:01.988Z,92000.51
2023-05-14T13:27:30.632Z,92005.44
2023-05-14T13:29:58.914Z,92005.95
2023-05-14T13:32:27.208Z,92002.57
2023-05-14T13:34:55.805Z,91998.63
2023-05-14T13:37:25.713Z,91992.39
2023-05-14T13:39:53.891Z,91989.66
2023-05-14T13:42:22.262Z,91987.34
2023-05-14T13:44:50.921Z,91982.55
2023-05-14T13:47:19.169Z,91978.63
2023-05-14T13:49:47.393Z,91979.48
2023-05-14T13:52:15.753Z,91981.21
2023-05-14T13:54:44.086Z,91979.54
2023-05-14T13:57:12.415Z,91981.14
2023-05-14T13:59:41.036Z,91983.02
2023-05-14T14:02:09.715Z,91987.56
2023-05-14T14:04:38.179Z,91986.05
2023-05-14T14:07:09.132Z,91981.84
2023-05-14T14:09:37.356Z,91982.08
2023-05-14T14:12:06.339Z,91976.96
2023-05-14T14:14:34.646Z,91981.91
2023-05-14T14:17:02.951Z,91976.37
2023-05-14T14:19:31.138Z,91974.86
2023-05-14T14:21:59.286Z,91979.48
2023-05-14T14:24:27.604Z,91982.54
2023-05-14T14:26:55.834Z,91980.75
2023-05-14T14:29:24.126Z,91975.52
2023-05-14T14:31:52.515Z,91969.52
2023-05-14T14:34:21.089Z,91964.37
2023-05-14T14:36:49.295Z,91967.71
2023-05-14T14:39:17.539Z,91964.43
2023-05-14T14:41:45.871Z,91963.20
2023-05-14T14:44:14.133Z,91961.92
2023-05-14T14:46:43.093Z,91959.98
2023-05-14T14:49:11.290Z,91953.38
2023-05-14T14:51:39.736Z,91955.11
2023-05-14T14:54:08.044Z,91949.85
2023-05-14T14:56:36.367Z,91945.75
2023-05-14T14:59:04.661Z,91940.34
2023-05-14T15:01:33.460Z,91939.25
2023-05-14T15:04:01.756Z,91934.23
2023-05-14T15:06:29.948Z,91925.80
2023-05-14T15:08:58.216Z,91927.59
2023-05-14T15:11:26.810Z,91928.45
2023-05-14T15:13:55.115Z,91927.41
2023-05-14T15:16:23.403Z,91926.83
2023-05-14T15:18:51.638Z,91919.25
2023-05-14T15:21:19.924Z,91917.39
2023-05-14T15:23:48.183Z,91913.36
2023-05-14T15:26:16.528Z,91916.29
2023-05-14T15:28:44.725Z,91913.20
2023-05-14T15:31:12.910Z,91901.18
2023-05-14T15:33:41.882Z,91890.33
2023-05-14T15:36:10.184Z,91882.02
2023-05-14T15:38:38.433Z,91879.30
2023-05-14T15:41:06.854Z,91873.52
2023-05-14T15:43:35.545Z,91873.10
2023-05-14T15:46:03.803Z,91879.36
2023-05-14T15:48:32.071Z,91883.81
2023-05-14T15:51:00.386Z,91884.61
2023-05-14T15:53:28.918Z,91884.29
2023-05-14T15:55:57.225Z,91886.09
2023-05-14T15:58:26.469Z,91902.98
2023-05-14T16:00:54.812Z,91912.89
2023-05-14T16:03:23.201Z,91912.23
2023-05-14T16:05:52.286Z,91919.64
2023-05-14T16:08:20.482Z,91929.21
2023-05-14T16:10:48.720Z,91935.31
2023-05-14T16:13:16.953Z,91939.70
2023-05-14T16:15:45.070Z,91931.09
2023-05-14T16:18:13.282Z,91924.94
2023-05-14T16:20:41.632Z,91922.12
2023-05-14T16:23:09.854Z,91929.14
2023-05-14T16:25:38.619Z,91935.56
2023-05-14T16:28:08.122Z,91941.80
2023-05-14T16:30:36.329Z,91936.08
2023-05-14T16:33:04.501Z,91934.80
2023-05-14T16:35:32.826Z,91946.23
2023-05-14T16:38:01.854Z,91945.49
2023-05-14T16:40:30.445Z,91945.46
2023-05-14T16:42:58.651Z,91944.73
2023-05-14T16:45:27.135Z,91952.17
2023-05-14T16:47:55.493Z,91957.27
2023-05-14T16:50:23.752Z,91950.78
2023-05-14T16:52:52.324Z,91946.64
2023-05-14T16:55:20.762Z,91940.79
2023-05-14T16:57:49.038Z,91939.42
2023-05-14T17:00:18.057Z,91940.86
2023-05-14T17:02:49.301Z,91931.02
2023-05-14T17:05:17.708Z,91910.33
2023-05-14T17:07:45.925Z,91898.12
2023-05-14T17:10:14.461Z,91890.09
2023-05-14T17:12:42.751Z,91881.31
2023-05-14T17:15:10.325Z,91880.03
2023-05-14T17:17:38.563Z,91881.80
2023-05-14T17:20:08.294Z,91885.55
2023-05-14T17:22:36.953Z,91893.63
2023-05-14T17:25:05.794Z,91893.38
2023-05-14T17:27:34.086Z,91901.27
2023-05-14T17:30:03.792Z,91908.25
2023-05-14T17:32:32.219Z,91913.19
2023-05-14T17:35:00.589Z,91922.41
2023-05-14T17:37:29.103Z,91930.62
2023-05-14T17:39:57.432Z,91936.54
2023-05-14T17:42:25.717Z,91935.42
2023-05-14T17:44:54.095Z,91938.88
2023-05-14T17:47:22.365Z,91938.69
2023-05-14T17:49:51.381Z,91929.27
2023-05-14T17:52:19.526Z,91923.77
2023-05-14T17:54:47.692Z,91929.98
2023-05-14T17:57:16.018Z,91935.42
2023-05-14T17:59:44.217Z,91939.13
2023-05-14T18:02:12.434Z,91947.61
2023-05-14T18:04:40.734Z,91951.94
2023-05-14T18:07:08.983Z,91952.05
2023-05-14T18:09:37.296Z,91950.79
2023-05-14T18:12:05.880Z,91951.44
2023-05-14T18:14:34.441Z,91955.15
2023-05-14T18:17:02.848Z,91963.47
2023-05-14T18:19:31.609Z,91967.22
2023-05-14T18:21:59.766Z,91966.44
2023-05-14T18:24:28.036Z,91963.05
2023-05-14T18:26:56.265Z,91964.15
2023-05-14T18:29:24.515Z,91967.23
2023-05-14T18:31:52.792Z,91971.14
2023-05-14T18:34:21.006Z,91977.61
2023-05-14T18:36:50.265Z,91979.31
2023-05-14T18:39:18.899Z,91986.21
2023-05-14T18:41:47.112Z,91979.01
2023-05-14T18:44:15.306Z,91974.41
2023-05-14T18:46:43.633Z,91971.98
2023-05-14T18:49:12.103Z,91975.39
2023-05-14T18:51:40.354Z,91974.10
2023-05-14T18:54:08.671Z,91972.51
2023-05-14T18:56:37.542Z,91973.14
2023-05-14T18:59:05.721Z,91971.26
2023-05-14T19:01:33.983Z,91967.67
2023-05-14T19:04:05.188Z,91972.16
2023-05-14T19:06:33.891Z,91971.83
2023-05-14T19:09:02.221Z,91967.16
2023-05-14T19:11:30.466Z,91964.20
2023-05-14T19:13:58.661Z,91960.08
2023-05-14T19:16:27.220Z,91963.14
2023-05-14T19:18:56.960Z,91966.45
2023-05-14T19:21:25.282Z,91967.02
2023-05-14T19:23:53.553Z,91963.55
2023-05-14T19:26:21.985Z,91960.30
2023-05-14T19:28:50.687Z,91959.42
2023-05-14T19:31:18.955Z,91957.22
2023-05-14T19:33:47.195Z,91951.28
2023-05-14T19:36:15.749Z,91953.63
2023-05-14T19:38:43.963Z,91952.08
2023-05-14T19:41:12.253Z,91947.80
2023-05-14T19:43:40.915Z,91950.48
2023-05-14T19:46:09.314Z,91950.59
2023-05-14T19:48:38.970Z,91950.94
2023-05-14T19:51:07.271Z,91946.79
2023-05-14T19:53:36.007Z,91947.17
2023-05-14T19:56:04.397Z,91949.55
2023-05-14T19:58:32.699Z,91948.23
2023-05-14T20:01:01.047Z,91949.02
2023-05-14T20:03:30.119Z,91948.27
2023-05-14T20:05:58.404Z,91948.66
2023-05-14T20:08:26.731Z,91940.52
2023-05-14T20:10:55.416Z,91930.36
2023-05-14T20:13:25.251Z,91924.58
2023-05-14T20:15:55.358Z,91917.59
2023-05-14T20:18:23.632Z,91907.98
2023-05-14T20:20:51.990Z,91901.85
2023-05-14T20:23:20.991Z,91893.23
2023-05-14T20:25:49.328Z,91885.11
2023-05-14T20:28:17.609Z,91882.45
2023-05-14T20:30:46.531Z,91881.88
2023-05-14T20:33:15.146Z,91882.26
2023-05-14T20:35:44.258Z,91887.93
2023-05-14T20:38:13.573Z,91878.05
2023-05-14T20:40:41.960Z,91865.99
2023-05-14T20:43:10.399Z,91863.96
2023-05-14T20:45:39.263Z,91856.79
2023-05-14T20:48:10.288Z,91854.79
2023-05-14T20:50:38.621Z,91851.87
2023-05-14T20:53:07.039Z,91847.52
2023-05-14T20:55:35.470Z,91839.61
2023-05-14T20:58:03.842Z,91832.39
2023-05-14T21:00:32.124Z,91830.98
2023-05-14T21:03:00.724Z,91830.18
2023-05-14T21:05:29.221Z,91835.29
2023-05-14T21:07:57.491Z,91844.76
2023-05-14T21:10:25.899Z,91846.08
2023-05-14T21:12:54.511Z,91847.13
2023-05-14T21:15:23.422Z,91850.81
2023-05-14T21:17:51.913Z,91845.83
2023-05-14T21:20:20.254Z,91831.91
2023-05-14T21:22:48.441Z,91827.44
2023-05-14T21:25:17.149Z,91828.02
2023-05-14T21:27:45.558Z,91828.88
2023-05-14T21:30:14.049Z,91821.72
2023-05-14T21:32:42.463Z,91810.51
2023-05-14T21:35:10.791Z,91802.36
2023-05-14T21:37:39.971Z,91806.29
2023-05-14T21:40:09.504Z,91808.03
2023-05-14T21:42:38.362Z,91810.97
2023-05-14T21:45:07.103Z,91809.08
2023-05-14T21:47:35.613Z,91810.91
2023-05-14T21:50:05.036Z,91805.73
2023-05-14T21:52:33.730Z,91811.61
2023-05-14T21:55:01.978Z,91817.33
2023-05-14T21:57:33.122Z,91818.45
2023-05-14T22:00:04.689Z,91816.27
2023-05-14T22:02:32.890Z,91815.10
2023-05-14T22:05:01.508Z,91813.55
2023-05-14T22:07:29.782Z,91811.38
2023-05-14T22:09:57.972Z,91815.10
2023-05-14T22:12:26.940Z,91810.60
2023-05-14T22:14:55.202Z,91801.41
2023-05-14T22:17:23.577Z,91789.59
2023-05-14T22:19:51.932Z,91789.87
2023-05-14T22:22:20.090Z,91787.52
2023-05-14T22:24:48.308Z,91793.33
2023-05-14T22:27:16.669Z,91790.47
2023-05-14T22:29:45.156Z,91795.42
2023-05-14T22:32:13.426Z,91802.80
2023-05-14T22:34:41.714Z,91800.40
2023-05-14T22:37:10.046Z,91802.75
2023-05-14T22:39:38.485Z,91808.68
2023-05-14T22:42:06.736Z,91804.09
2023-05-14T22:44:36.721Z,91797.27
2023-05-14T22:47:05.400Z,91796.82
2023-05-14T22:49:33.602Z,91792.95
2023-05-14T22:52:01.876Z,91789.56
2023-05-14T22:54:30.137Z,91784.39
2023-05-14T22:56:58.698Z,91778.08
2023-05-14T22:59:26.846Z,91779.01
2023-05-14T23:01:55.126Z,91775.77
2023-05-14T23:04:23.467Z,91768.29
2023-05-14T23:06:52.052Z,91759.61
2023-05-14T23:09:20.649Z,91766.36
2023-05-14T23:11:48.892Z,91771.17
2023-05-14T23:14:18.132Z,91772.68
2023-05-14T23:16:46.444Z,91770.38
2023-05-14T23:19:14.777Z,91772.41
2023-05-14T23:21:43.129Z,91774.14
2023-05-14T23:24:11.380Z,91776.62
2023-05-14T23:26:39.827Z,91779.41
2023-05-14T23:29:08.131Z,91773.70
2023-05-14T23:31:36.953Z,91767.27
2023-05-14T23:34:05.297Z,91765.32
2023-05-14T23:36:33.639Z,91768.89
2023-05-14T23:39:01.953Z,91775.20
2023-05-14T23:41:30.250Z,91776.48
2023-05-14T23:43:58.576Z,91773.08
2023-05-14T23:46:27.120Z,91767.08
2023-05-14T23:48:57.238Z,91760.36
2023-05-14T23:51:27.263Z,91752.67
2023-05-14T23:53:58.664Z,91747.83
2023-05-14T23:56:29.370Z,91742.59
2023-05-14T23:58:57.714Z,91741.86
